Time;durP1;ratioP1;P1;durP2;ratioP2;P2;SDS_P1;SDS_P2;PMS_P1;PMS_P2;Temp;Humidity;BMP_temperature;BMP_pressure;BME280_temperature;BME280_humidity;BME280_pressure;Samples;Min_cycle;Max_cycle;Signal;HPM_P1;HPM_P2
2021/12/10 00:00:50;;;;;;;31.05;18.90;;;5.00;99.90;;;;;;5074015;28;20048;-69
2021/12/10 00:03:31;;;;;;;32.85;18.88;;;5.00;99.90;;;;;;5073862;28;20098;-69
2021/12/10 00:06:13;;;;;;;33.65;18.80;;;5.00;99.90;;;;;;5082792;28;20530;-69
2021/12/10 00:08:45;;;;;;;31.73;17.77;;;5.10;99.90;;;;;;5094106;28;20798;-69
2021/12/10 00:11:19;;;;;;;33.75;16.70;;;5.10;99.90;;;;;;5093726;28;20386;-68
2021/12/10 00:13:47;;;;;;;30.20;18.25;;;5.10;99.90;;;;;;5093794;28;20040;-69
2021/12/10 00:16:15;;;;;;;30.10;18.10;;;5.00;99.90;;;;;;5093195;28;20036;-66
2021/12/10 00:18:47;;;;;;;31.83;18.17;;;4.90;99.90;;;;;;5093995;28;20119;-68
2021/12/10 00:21:13;;;;;;;29.73;17.15;;;4.90;99.90;;;;;;5094112;28;20058;-68
2021/12/10 00:23:38;;;;;;;35.80;17.88;;;4.80;99.90;;;;;;5093732;28;20036;-68
2021/12/10 00:26:06;;;;;;;33.58;18.45;;;4.70;99.90;;;;;;5093574;28;20582;-70
2021/12/10 00:28:35;;;;;;;31.60;17.60;;;4.60;99.90;;;;;;5093359;28;20365;-68
2021/12/10 00:31:45;;;;;;;28.23;15.73;;;4.60;99.90;;;;;;5093668;28;20127;-69
2021/12/10 00:34:27;;;;;;;31.70;16.42;;;4.60;99.90;;;;;;5092253;28;20127;-68
2021/12/10 00:36:56;;;;;;;31.58;16.52;;;4.60;99.90;;;;;;5093541;28;20044;-68
2021/12/10 00:39:29;;;;;;;25.17;16.38;;;4.60;99.90;;;;;;5093581;28;20036;-69
2021/12/10 00:41:58;;;;;;;25.73;15.73;;;4.60;99.90;;;;;;5093437;28;20048;-69
2021/12/10 00:44:24;;;;;;;28.02;14.93;;;4.60;99.90;;;;;;5092816;28;20492;-68
2021/12/10 00:46:51;;;;;;;23.58;13.85;;;4.60;99.90;;;;;;5093045;28;20465;-68
2021/12/10 00:49:17;;;;;;;28.13;14.68;;;4.60;99.90;;;;;;5093667;28;20360;-67
2021/12/10 00:51:43;;;;;;;25.35;13.57;;;4.60;99.90;;;;;;5093266;28;20406;-68
2021/12/10 00:54:10;;;;;;;20.85;13.60;;;4.60;99.90;;;;;;5093173;28;20066;-68
2021/12/10 00:56:37;;;;;;;29.98;13.98;;;4.60;99.90;;;;;;5093134;28;20491;-68
2021/12/10 00:59:04;;;;;;;30.77;13.82;;;4.70;99.90;;;;;;5093240;28;20040;-68
2021/12/10 01:01:31;;;;;;;26.77;13.20;;;4.60;99.90;;;;;;5093281;28;20058;-68
2021/12/10 01:04:29;;;;;;;25.17;11.90;;;4.70;99.90;;;;;;5092820;28;20116;-68
2021/12/10 01:06:58;;;;;;;26.08;12.50;;;4.80;99.90;;;;;;5092270;28;20561;-69
2021/12/10 01:09:29;;;;;;;23.95;12.43;;;4.80;99.90;;;;;;5092985;28;20532;-69
2021/12/10 01:12:04;;;;;;;26.63;13.18;;;4.80;99.90;;;;;;5093438;28;20117;-68
2021/12/10 01:14:54;;;;;;;22.23;12.63;;;4.80;99.90;;;;;;5093003;28;20032;-68
2021/12/10 01:25:53;;;;;;;22.52;11.63;;;4.80;99.90;;;;;;5092890;28;20468;-68
2021/12/10 01:28:19;;;;;;;26.40;12.40;;;4.80;99.90;;;;;;5093053;28;20093;-69
2021/12/10 01:30:44;;;;;;;25.35;11.85;;;4.80;99.90;;;;;;5093553;28;20036;-69
2021/12/10 01:33:16;;;;;;;25.33;12.38;;;4.90;99.90;;;;;;5092471;28;20123;-70
2021/12/10 01:35:53;;;;;;;18.77;12.45;;;4.80;99.90;;;;;;5092760;28;20655;-69
2021/12/10 01:38:19;;;;;;;24.75;12.77;;;4.90;99.90;;;;;;5093133;28;20046;-69
2021/12/10 01:40:48;;;;;;;25.00;13.55;;;4.90;99.90;;;;;;5093121;28;20044;-69
2021/12/10 01:43:22;;;;;;;23.75;14.10;;;4.80;99.90;;;;;;5092876;28;20127;-68
2021/12/10 01:45:54;;;;;;;29.25;12.80;;;4.90;99.90;;;;;;5083723;28;20032;-69
2021/12/10 01:48:25;;;;;;;24.33;12.95;;;4.80;99.90;;;;;;5096424;28;20415;-69
2021/12/10 01:50:53;;;;;;;22.33;13.45;;;4.80;99.90;;;;;;5096584;28;20036;-69
2021/12/10 01:53:22;;;;;;;28.73;13.43;;;4.80;99.90;;;;;;5096499;28;20056;-69
2021/12/10 01:55:49;;;;;;;23.20;12.95;;;4.80;99.90;;;;;;5096180;28;20146;-69
2021/12/10 01:58:20;;;;;;;21.52;12.73;;;4.80;99.90;;;;;;5093200;28;20085;-69
2021/12/10 02:01:00;;;;;;;22.27;12.85;;;4.80;99.90;;;;;;5076211;28;20044;-69
2021/12/10 02:03:27;;;;;;;26.05;13.10;;;4.80;99.90;;;;;;5075445;28;20378;-69
2021/12/10 02:05:53;;;;;;;21.90;12.52;;;4.80;99.90;;;;;;5083832;28;20035;-69
2021/12/10 02:08:18;;;;;;;23.80;13.48;;;4.80;99.90;;;;;;5096277;28;20040;-69
2021/12/10 02:10:44;;;;;;;23.25;13.63;;;4.80;99.90;;;;;;5096057;28;20040;-70
2021/12/10 02:13:10;;;;;;;27.02;13.30;;;4.80;99.90;;;;;;5095941;28;20101;-69
2021/12/10 02:15:37;;;;;;;23.08;12.90;;;4.70;99.90;;;;;;5096085;28;20043;-69
2021/12/10 02:18:06;;;;;;;21.95;13.63;;;4.70;99.90;;;;;;5094661;28;20131;-69
2021/12/10 02:20:54;;;;;;;26.17;12.88;;;4.70;99.90;;;;;;5095180;28;20075;-69
2021/12/10 02:23:22;;;;;;;25.02;12.85;;;4.80;99.90;;;;;;5095458;28;20068;-69
2021/12/10 02:25:48;;;;;;;24.10;12.00;;;4.80;99.90;;;;;;5095126;28;20624;-69
2021/12/10 02:28:14;;;;;;;22.58;12.15;;;4.80;99.90;;;;;;5095771;28;20139;-69
2021/12/10 02:30:41;;;;;;;21.75;11.25;;;4.80;99.90;;;;;;5095523;28;20135;-69
2021/12/10 02:33:06;;;;;;;22.10;12.35;;;4.70;99.90;;;;;;5095442;28;20102;-69
2021/12/10 02:35:33;;;;;;;20.48;11.75;;;4.70;99.90;;;;;;5095488;28;20333;-69
2021/12/10 02:37:59;;;;;;;22.90;12.60;;;4.70;99.90;;;;;;5095612;28;20046;-69
2021/12/10 02:40:26;;;;;;;22.00;11.00;;;4.70;99.90;;;;;;5095595;28;20056;-69
2021/12/10 02:42:53;;;;;;;21.45;11.55;;;4.60;99.90;;;;;;5095757;28;20032;-69
2021/12/10 02:45:21;;;;;;;18.65;10.60;;;4.60;99.90;;;;;;5094706;28;20498;-70
2021/12/10 02:47:48;;;;;;;19.00;10.48;;;4.60;99.90;;;;;;5095596;28;20062;-68
2021/12/10 02:50:17;;;;;;;17.50;10.60;;;4.60;99.90;;;;;;5095393;28;20043;-69
2021/12/10 02:52:43;;;;;;;18.58;10.55;;;4.70;99.90;;;;;;5095387;28;20401;-69
2021/12/10 02:55:10;;;;;;;19.85;9.95;;;4.60;99.90;;;;;;5094577;28;20669;-70
2021/12/10 02:57:38;;;;;;;20.77;11.15;;;4.60;99.90;;;;;;5095280;28;20055;-69
2021/12/10 03:00:07;;;;;;;17.98;10.13;;;4.60;99.90;;;;;;5076056;28;20055;-68
2021/12/10 03:02:33;;;;;;;22.15;10.45;;;4.50;99.90;;;;;;5074481;28;20119;-69
2021/12/10 03:04:59;;;;;;;21.65;12.18;;;4.50;99.90;;;;;;5074290;28;20116;-69
2021/12/10 03:07:25;;;;;;;18.67;11.00;;;4.50;99.90;;;;;;5094888;28;20040;-69
2021/12/10 03:09:53;;;;;;;19.67;10.52;;;4.60;99.90;;;;;;5095207;28;20058;-69
2021/12/10 03:12:21;;;;;;;17.40;10.27;;;4.50;99.90;;;;;;5094946;28;20122;-69
2021/12/10 03:14:51;;;;;;;23.27;11.05;;;4.50;99.90;;;;;;5094478;28;20357;-68
2021/12/10 03:17:24;;;;;;;23.33;10.80;;;4.50;99.90;;;;;;5094386;28;20071;-69
2021/12/10 03:19:51;;;;;;;17.38;9.82;;;4.40;99.90;;;;;;5094050;28;20040;-70
2021/12/10 03:22:18;;;;;;;19.25;9.77;;;4.40;99.90;;;;;;5094031;28;20036;-69
2021/12/10 03:24:44;;;;;;;15.55;9.38;;;4.30;99.90;;;;;;5094181;28;20399;-69
2021/12/10 03:27:11;;;;;;;17.52;9.13;;;4.30;99.90;;;;;;5094514;28;20027;-69
2021/12/10 03:29:40;;;;;;;16.10;9.82;;;4.30;99.90;;;;;;5094431;28;20440;-68
2021/12/10 03:32:13;;;;;;;16.40;9.05;;;4.20;99.90;;;;;;5094571;28;20119;-69
2021/12/10 03:34:39;;;;;;;15.32;9.35;;;4.20;99.90;;;;;;5093913;28;20464;-69
2021/12/10 03:37:06;;;;;;;15.77;9.27;;;4.10;99.90;;;;;;5094520;28;20071;-69
2021/12/10 03:39:32;;;;;;;18.75;8.90;;;4.10;99.90;;;;;;5094460;28;20047;-69
2021/12/10 03:41:59;;;;;;;18.23;9.35;;;4.10;99.90;;;;;;5094433;28;20461;-70
2021/12/10 03:44:25;;;;;;;16.02;8.77;;;4.00;99.90;;;;;;5093897;28;20071;-68
2021/12/10 03:46:52;;;;;;;18.80;9.45;;;4.00;99.90;;;;;;5094059;28;20047;-68
2021/12/10 03:49:19;;;;;;;18.42;9.38;;;4.00;99.90;;;;;;5094562;28;20093;-68
2021/12/10 03:51:45;;;;;;;15.23;9.65;;;3.90;99.90;;;;;;5094466;28;20063;-69
2021/12/10 03:54:12;;;;;;;15.77;9.60;;;3.80;99.90;;;;;;5093613;28;20461;-70
2021/12/10 03:56:39;;;;;;;18.88;10.70;;;3.70;99.90;;;;;;5094072;28;20048;-69
2021/12/10 03:59:12;;;;;;;15.25;10.10;;;3.70;99.90;;;;;;5084083;28;20036;-69
2021/12/10 04:01:42;;;;;;;17.15;9.65;;;3.60;99.90;;;;;;5073731;28;20041;-69
2021/12/10 04:04:11;;;;;;;18.85;10.75;;;3.60;99.90;;;;;;5073325;28;20032;-69
2021/12/10 04:06:37;;;;;;;20.70;10.95;;;3.50;99.90;;;;;;5084855;28;20481;-69
2021/12/10 04:09:05;;;;;;;14.95;9.88;;;3.60;99.90;;;;;;5094076;28;20119;-70
2021/12/10 04:11:32;;;;;;;18.75;10.20;;;3.50;99.90;;;;;;5093936;28;20050;-69
2021/12/10 04:13:58;;;;;;;18.40;11.30;;;3.50;99.90;;;;;;5093736;28;20357;-69
2021/12/10 04:16:26;;;;;;;18.05;11.57;;;3.50;99.90;;;;;;5093436;28;20082;-68
2021/12/10 04:18:54;;;;;;;20.27;11.23;;;3.40;99.90;;;;;;5093956;28;20127;-71
2021/12/10 04:21:20;;;;;;;15.57;10.48;;;3.30;99.90;;;;;;5093881;28;20063;-70
2021/12/10 04:23:47;;;;;;;16.30;10.50;;;3.30;99.90;;;;;;5093811;28;20057;-69
2021/12/10 04:26:15;;;;;;;18.50;10.77;;;3.40;99.90;;;;;;5093613;28;20093;-69
2021/12/10 04:28:42;;;;;;;20.13;10.18;;;3.30;99.90;;;;;;5093801;28;20083;-68
2021/12/10 04:31:08;;;;;;;19.27;11.15;;;3.30;99.90;;;;;;5093761;28;20052;-68
2021/12/10 04:33:34;;;;;;;16.08;10.52;;;3.30;99.90;;;;;;5093529;28;20048;-68
2021/12/10 04:36:01;;;;;;;17.63;10.85;;;3.30;99.90;;;;;;5093687;28;20350;-69
2021/12/10 04:38:29;;;;;;;16.98;10.50;;;3.20;99.90;;;;;;5093604;28;20040;-69
2021/12/10 04:40:59;;;;;;;21.30;11.10;;;3.20;99.90;;;;;;5093877;28;20040;-69
2021/12/10 04:43:26;;;;;;;17.13;11.38;;;3.10;99.90;;;;;;5093395;28;20044;-69
2021/12/10 04:45:54;;;;;;;20.40;10.98;;;3.10;99.90;;;;;;5093565;28;20036;-70
2021/12/10 04:48:20;;;;;;;21.08;12.15;;;3.10;99.90;;;;;;5093410;28;20077;-68
2021/12/10 04:50:47;;;;;;;20.67;12.00;;;3.00;99.90;;;;;;5093957;28;20036;-69
2021/12/10 04:53:13;;;;;;;19.98;11.65;;;3.00;99.90;;;;;;5093318;28;20044;-69
2021/12/10 04:55:40;;;;;;;19.48;12.32;;;2.90;99.90;;;;;;5093458;28;20122;-68
2021/12/10 04:58:07;;;;;;;20.40;12.70;;;2.90;99.90;;;;;;5092154;28;20349;-69
2021/12/10 05:00:37;;;;;;;20.38;12.75;;;2.90;99.90;;;;;;5093552;28;20066;-69
2021/12/10 05:03:05;;;;;;;19.90;11.52;;;2.80;99.90;;;;;;5093215;28;20032;-69
2021/12/10 05:05:32;;;;;;;18.92;13.23;;;2.80;99.90;;;;;;5092903;28;20040;-69
2021/12/10 05:07:58;;;;;;;18.67;12.20;;;2.80;99.90;;;;;;5093568;28;20036;-68
2021/12/10 05:10:24;;;;;;;19.88;12.85;;;2.70;99.90;;;;;;5093394;28;20029;-69
2021/12/10 05:12:50;;;;;;;20.25;12.70;;;2.80;99.90;;;;;;5092744;28;20361;-69
2021/12/10 05:15:20;;;;;;;22.05;12.63;;;2.60;99.90;;;;;;5093223;28;20032;-68
2021/12/10 05:17:48;;;;;;;19.13;12.27;;;2.60;99.90;;;;;;5092564;28;20063;-69
2021/12/10 05:20:18;;;;;;;20.02;13.15;;;2.70;99.90;;;;;;5096882;28;20040;-69
2021/12/10 05:22:46;;;;;;;21.80;13.43;;;2.70;99.90;;;;;;5096961;28;20044;-69
2021/12/10 05:25:12;;;;;;;22.75;13.02;;;2.80;99.90;;;;;;5096937;28;20040;-69
2021/12/10 05:27:40;;;;;;;20.65;12.63;;;2.70;99.90;;;;;;5096956;28;20047;-69
2021/12/10 05:30:08;;;;;;;18.92;12.80;;;2.70;99.90;;;;;;5096529;28;20052;-69
2021/12/10 05:32:34;;;;;;;20.45;14.02;;;2.70;99.90;;;;;;5096911;28;20087;-69
2021/12/10 05:35:00;;;;;;;18.52;12.90;;;2.60;99.90;;;;;;5096597;28;20036;-69
2021/12/10 05:37:26;;;;;;;21.80;12.38;;;2.60;99.90;;;;;;5096285;28;20069;-69
2021/12/10 05:39:52;;;;;;;21.17;11.48;;;2.60;99.90;;;;;;5096482;28;20127;-68
2021/12/10 05:42:18;;;;;;;17.42;11.50;;;2.50;99.90;;;;;;5095482;28;20040;-69
2021/12/10 05:44:43;;;;;;;20.70;12.68;;;2.60;99.90;;;;;;5096272;28;20058;-69
2021/12/10 05:47:09;;;;;;;23.02;12.45;;;2.60;99.90;;;;;;5084191;28;20029;-68
2021/12/10 05:49:35;;;;;;;19.42;11.68;;;2.60;99.90;;;;;;5074512;28;20393;-69
2021/12/10 05:52:02;;;;;;;17.02;10.52;;;2.50;99.90;;;;;;5075732;28;20032;-69
2021/12/10 05:54:28;;;;;;;20.98;12.88;;;2.50;99.90;;;;;;5075257;28;20040;-69
2021/12/10 05:56:54;;;;;;;19.58;12.25;;;2.50;99.90;;;;;;5077676;28;20045;-68
2021/12/10 05:59:19;;;;;;;17.75;11.38;;;2.50;99.90;;;;;;5075322;28;20115;-69
2021/12/10 06:01:45;;;;;;;20.08;12.23;;;2.50;99.90;;;;;;5074749;28;20040;-69
2021/12/10 06:04:11;;;;;;;16.15;11.13;;;2.50;99.90;;;;;;5075328;28;20040;-69
2021/12/10 06:06:37;;;;;;;22.85;12.35;;;2.40;99.90;;;;;;5079867;28;20028;-69
2021/12/10 06:09:07;;;;;;;19.52;12.30;;;2.30;99.90;;;;;;5075690;28;20032;-71
2021/12/10 06:11:33;;;;;;;19.77;12.20;;;2.30;99.90;;;;;;5075229;28;20404;-69
2021/12/10 06:13:59;;;;;;;18.85;11.68;;;2.40;99.90;;;;;;5074833;28;20067;-69
2021/12/10 06:16:25;;;;;;;18.10;12.07;;;2.30;99.90;;;;;;5076203;28;20048;-68
2021/12/10 06:18:51;;;;;;;18.27;11.13;;;2.30;99.90;;;;;;5075705;28;20041;-69
2021/12/10 06:21:17;;;;;;;16.10;10.80;;;2.30;99.90;;;;;;5075738;28;20051;-69
2021/12/10 06:23:43;;;;;;;16.73;11.23;;;2.30;99.90;;;;;;5075402;28;20052;-67
2021/12/10 06:26:09;;;;;;;14.38;9.68;;;2.30;99.90;;;;;;5083459;28;20733;-70
2021/12/10 06:28:36;;;;;;;17.85;11.00;;;2.30;99.90;;;;;;5083825;28;20449;-69
2021/12/10 06:31:04;;;;;;;15.68;11.10;;;2.30;99.90;;;;;;5074593;28;20032;-69
2021/12/10 06:33:31;;;;;;;15.98;10.27;;;2.30;99.90;;;;;;5074973;28;20036;-68
2021/12/10 06:36:00;;;;;;;16.48;11.60;;;2.20;99.90;;;;;;5081544;28;20051;-69
2021/12/10 06:38:27;;;;;;;17.73;10.93;;;2.20;99.90;;;;;;5095231;28;20445;-69
2021/12/10 06:40:54;;;;;;;20.95;11.40;;;2.20;99.90;;;;;;5095668;28;20035;-69
2021/12/10 06:43:20;;;;;;;15.88;10.13;;;2.20;99.90;;;;;;5094122;28;20044;-70
2021/12/10 06:45:47;;;;;;;15.05;10.23;;;2.20;99.90;;;;;;5095265;28;20036;-69
2021/12/10 06:48:15;;;;;;;15.82;10.65;;;2.20;99.90;;;;;;5095553;28;20039;-69
2021/12/10 06:50:48;;;;;;;15.43;10.07;;;2.20;99.90;;;;;;5095292;28;20096;-69
2021/12/10 06:53:15;;;;;;;16.05;10.88;;;2.20;99.90;;;;;;5094862;28;20378;-71
2021/12/10 06:55:41;;;;;;;15.60;10.82;;;2.10;99.90;;;;;;5095298;28;20063;-68
2021/12/10 06:58:07;;;;;;;15.88;10.07;;;2.10;99.90;;;;;;5080744;28;20055;-69
2021/12/10 07:00:44;;;;;;;15.38;9.60;;;2.10;99.90;;;;;;5077843;28;20480;-67
2021/12/10 07:03:17;;;;;;;14.82;9.50;;;2.10;99.90;;;;;;5090944;28;20660;-68
2021/12/10 07:05:43;;;;;;;16.10;9.27;;;2.10;99.90;;;;;;5093872;28;20142;-69
2021/12/10 07:08:09;;;;;;;14.95;9.93;;;2.20;99.90;;;;;;5093251;28;20143;-74
2021/12/10 07:10:36;;;;;;;15.35;10.40;;;2.20;99.90;;;;;;5095086;28;20064;-71
2021/12/10 07:13:03;;;;;;;16.65;9.88;;;2.10;99.90;;;;;;5094706;28;20046;-70
2021/12/10 07:15:29;;;;;;;14.50;9.25;;;2.10;99.90;;;;;;5076820;28;20044;-70
2021/12/10 07:17:55;;;;;;;16.27;9.38;;;2.10;99.90;;;;;;5094097;28;20055;-70
2021/12/10 07:20:23;;;;;;;14.45;9.23;;;2.10;99.90;;;;;;5074000;28;20048;-69
2021/12/10 07:22:50;;;;;;;15.05;8.52;;;2.10;99.90;;;;;;5073957;28;20469;-70
2021/12/10 07:25:16;;;;;;;14.10;8.52;;;2.10;99.90;;;;;;5074592;28;20040;-70
2021/12/10 07:27:42;;;;;;;13.45;9.00;;;2.10;99.90;;;;;;5094317;28;20043;-70
2021/12/10 07:30:09;;;;;;;13.93;8.30;;;2.10;99.90;;;;;;5094493;28;20342;-69
2021/12/10 07:32:35;;;;;;;17.63;8.65;;;2.10;99.90;;;;;;5092962;28;20127;-71
2021/12/10 07:35:04;;;;;;;20.98;8.77;;;2.10;99.90;;;;;;5094880;28;20040;-70
2021/12/10 07:37:30;;;;;;;12.18;7.97;;;2.10;99.90;;;;;;5094217;28;20047;-69
2021/12/10 07:39:55;;;;;;;14.77;8.20;;;2.10;99.90;;;;;;5094391;28;20093;-69
2021/12/10 07:42:21;;;;;;;14.52;7.82;;;2.10;99.90;;;;;;5093164;28;20182;-68
2021/12/10 07:44:47;;;;;;;13.63;7.93;;;2.20;99.90;;;;;;5094225;28;20040;-70
2021/12/10 07:47:14;;;;;;;10.98;7.03;;;2.20;99.90;;;;;;5093899;28;20027;-69
2021/12/10 07:49:42;;;;;;;11.93;7.50;;;2.20;99.90;;;;;;5093245;28;20040;-69
2021/12/10 07:52:16;;;;;;;13.85;6.88;;;2.30;99.90;;;;;;5094269;28;20086;-69
2021/12/10 07:54:44;;;;;;;11.32;6.90;;;2.30;99.90;;;;;;5076399;28;20515;-69
2021/12/10 07:57:10;;;;;;;11.20;7.07;;;2.30;99.90;;;;;;5094228;28;20044;-70
2021/12/10 07:59:36;;;;;;;13.65;7.45;;;2.30;99.90;;;;;;5079861;28;20044;-68
2021/12/10 08:02:03;;;;;;;12.82;7.20;;;2.30;99.90;;;;;;5073829;28;20040;-69
2021/12/10 08:04:28;;;;;;;11.57;6.75;;;2.30;99.90;;;;;;5073550;28;20033;-70
2021/12/10 08:06:54;;;;;;;14.02;7.35;;;2.30;99.90;;;;;;5086699;28;20093;-69
2021/12/10 08:09:20;;;;;;;13.88;6.95;;;2.30;99.90;;;;;;5094171;28;20037;-69
2021/12/10 08:11:45;;;;;;;10.70;6.35;;;2.40;99.90;;;;;;5094227;28;20460;-69
2021/12/10 08:14:11;;;;;;;12.07;6.90;;;2.40;99.90;;;;;;5093588;28;20055;-70
2021/12/10 08:16:39;;;;;;;13.63;6.43;;;2.40;99.90;;;;;;5093242;28;20044;-70
2021/12/10 08:19:06;;;;;;;16.23;6.97;;;2.50;99.90;;;;;;5093018;28;20036;-69
2021/12/10 08:21:32;;;;;;;10.38;6.00;;;2.50;99.90;;;;;;5093395;28;20123;-67
2021/12/10 08:23:58;;;;;;;13.65;5.97;;;2.50;99.90;;;;;;5082954;28;20067;-66
2021/12/10 08:26:24;;;;;;;10.60;6.10;;;2.50;99.90;;;;;;5086791;28;20056;-67
2021/12/10 08:28:50;;;;;;;14.35;6.35;;;2.50;99.90;;;;;;5072113;28;20040;-68
2021/12/10 08:31:16;;;;;;;12.27;5.93;;;2.50;99.90;;;;;;5072492;28;20048;-69
2021/12/10 08:33:47;;;;;;;14.13;5.97;;;2.50;99.90;;;;;;5072100;28;20066;-69
2021/12/10 08:36:13;;;;;;;10.20;5.72;;;2.50;99.90;;;;;;5063263;28;20040;-70
2021/12/10 08:38:39;;;;;;;12.38;6.13;;;2.50;99.90;;;;;;5095891;28;20051;-69
2021/12/10 08:41:09;;;;;;;10.40;5.40;;;2.50;99.90;;;;;;5093507;28;20457;-70
2021/12/10 08:43:35;;;;;;;11.88;6.25;;;2.50;99.90;;;;;;5093204;28;20054;-70
2021/12/10 08:46:02;;;;;;;10.07;5.72;;;2.50;99.90;;;;;;5075594;28;20091;-69
2021/12/10 08:48:29;;;;;;;14.13;6.60;;;2.50;99.90;;;;;;5093722;28;20044;-70
2021/12/10 08:50:58;;;;;;;12.68;6.53;;;2.50;99.90;;;;;;5093433;28;20388;-70
2021/12/10 08:53:23;;;;;;;11.75;6.18;;;2.50;99.90;;;;;;5094916;28;20035;-70
2021/12/10 08:55:52;;;;;;;10.55;5.60;;;2.60;99.90;;;;;;5091328;28;20501;-70
2021/12/10 08:58:18;;;;;;;11.98;5.88;;;2.60;99.90;;;;;;5076537;28;20044;-70
2021/12/10 09:00:49;;;;;;;13.52;6.20;;;2.70;99.90;;;;;;5075855;28;20032;-69
2021/12/10 09:03:16;;;;;;;13.50;6.38;;;2.70;99.90;;;;;;5074842;28;20051;-70
2021/12/10 09:05:42;;;;;;;12.07;6.40;;;2.60;99.90;;;;;;5079111;28;20067;-70
2021/12/10 09:08:07;;;;;;;9.88;6.35;;;2.60;99.90;;;;;;5097098;28;20040;-69
2021/12/10 09:10:36;;;;;;;11.63;6.20;;;2.70;99.90;;;;;;5097262;28;20121;-71
2021/12/10 09:13:09;;;;;;;14.93;6.00;;;2.70;99.90;;;;;;5096599;28;20047;-70
2021/12/10 09:15:35;;;;;;;14.38;6.15;;;2.70;99.90;;;;;;5082555;28;20411;-70
2021/12/10 09:18:01;;;;;;;14.43;6.30;;;2.80;99.90;;;;;;5095824;28;20199;-71
2021/12/10 09:20:38;;;;;;;9.93;6.32;;;2.80;99.90;;;;;;5096241;28;20052;-71
2021/12/10 09:23:10;;;;;;;10.00;5.97;;;2.90;99.90;;;;;;5087141;28;20116;-69
2021/12/10 09:25:37;;;;;;;12.23;5.72;;;2.90;99.90;;;;;;5077820;28;20162;-66
2021/12/10 09:28:03;;;;;;;10.65;5.47;;;3.00;99.90;;;;;;5076759;28;20047;-68
2021/12/10 09:30:32;;;;;;;12.25;5.30;;;3.10;99.90;;;;;;5076702;28;20037;-69
2021/12/10 09:32:59;;;;;;;8.93;5.40;;;3.20;99.90;;;;;;5094095;28;20035;-69
2021/12/10 09:35:28;;;;;;;10.95;5.65;;;3.20;99.90;;;;;;5096920;28;20069;-68
2021/12/10 09:37:54;;;;;;;10.93;5.35;;;3.20;99.90;;;;;;5078465;28;20067;-67
2021/12/10 09:40:25;;;;;;;11.27;5.53;;;3.20;99.90;;;;;;5076302;28;20036;-68
2021/12/10 09:42:51;;;;;;;9.18;5.50;;;3.20;99.90;;;;;;5075291;28;20146;-68
2021/12/10 09:45:20;;;;;;;11.88;5.80;;;3.20;99.90;;;;;;5093655;28;20032;-69
2021/12/10 09:47:47;;;;;;;9.88;5.18;;;3.20;99.90;;;;;;5096620;28;20062;-70
2021/12/10 09:50:15;;;;;;;13.20;5.72;;;3.20;99.90;;;;;;5090622;28;20037;-69
2021/12/10 09:52:42;;;;;;;11.15;5.18;;;3.30;99.90;;;;;;5076166;28;20086;-69
2021/12/10 09:55:11;;;;;;;10.15;5.03;;;3.40;99.90;;;;;;5076204;28;20745;-66
2021/12/10 09:57:39;;;;;;;9.45;5.00;;;3.50;99.90;;;;;;5094653;28;20086;-69
2021/12/10 10:00:23;;;;;;;10.07;4.55;;;3.60;99.90;;;;;;5095543;28;20048;-68
2021/12/10 10:02:49;;;;;;;12.23;5.30;;;3.60;99.90;;;;;;5095835;28;20457;-71
2021/12/10 10:05:15;;;;;;;13.80;5.32;;;3.70;99.90;;;;;;5094157;28;20140;-69
2021/12/10 10:07:41;;;;;;;10.40;5.30;;;3.80;99.90;;;;;;5096141;28;20032;-69
2021/12/10 10:10:15;;;;;;;9.60;4.53;;;3.90;99.90;;;;;;5096355;28;20089;-69
2021/12/10 10:12:44;;;;;;;12.07;4.80;;;4.00;99.90;;;;;;5096257;28;20128;-69
2021/12/10 10:15:21;;;;;;;10.80;4.47;;;4.00;99.90;;;;;;5096276;28;20040;-69
2021/12/10 10:17:47;;;;;;;9.77;4.95;;;4.10;99.90;;;;;;5095558;28;20055;-69
2021/12/10 10:20:17;;;;;;;11.60;4.93;;;4.20;99.90;;;;;;5095964;28;20047;-70
2021/12/10 10:22:44;;;;;;;10.40;4.55;;;4.30;99.90;;;;;;5095803;28;20126;-70
2021/12/10 10:25:11;;;;;;;9.70;4.50;;;4.30;99.90;;;;;;5095701;28;20055;-71
2021/12/10 10:27:40;;;;;;;10.30;4.22;;;4.40;99.90;;;;;;5097100;28;20346;-72
2021/12/10 10:30:42;;;;;;;7.65;4.32;;;4.40;99.90;;;;;;5096017;28;20036;-69
2021/12/10 10:33:10;;;;;;;6.88;4.15;;;4.50;99.90;;;;;;5078167;28;20383;-69
2021/12/10 10:35:42;;;;;;;10.38;4.60;;;4.60;99.90;;;;;;5095509;28;20040;-70
2021/12/10 10:38:10;;;;;;;11.48;4.60;;;4.60;99.90;;;;;;5095692;28;20111;-70
2021/12/10 10:40:39;;;;;;;9.60;4.10;;;4.60;99.90;;;;;;5095618;28;20404;-71
2021/12/10 10:43:06;;;;;;;8.93;4.20;;;4.70;99.90;;;;;;5094967;28;20493;-70
2021/12/10 10:45:34;;;;;;;7.75;4.38;;;4.70;99.90;;;;;;5095241;28;20097;-69
2021/12/10 10:48:00;;;;;;;9.98;4.32;;;4.70;99.90;;;;;;5075366;28;20033;-70
2021/12/10 10:50:30;;;;;;;8.55;4.20;;;4.70;99.90;;;;;;5075445;28;20466;-70
2021/12/10 10:53:02;;;;;;;17.88;4.10;;;4.70;99.90;;;;;;5074962;28;20063;-68
2021/12/10 10:55:36;;;;;;;8.70;4.05;;;4.80;99.90;;;;;;5075256;28;20032;-69
2021/12/10 10:58:12;;;;;;;9.18;4.47;;;4.90;99.90;;;;;;5075721;28;20404;-70
2021/12/10 11:00:59;;;;;;;9.15;3.90;;;4.90;99.90;;;;;;5095279;28;20040;-68
2021/12/10 11:03:36;;;;;;;8.65;3.92;;;4.90;99.90;;;;;;5081660;28;20508;-70
2021/12/10 11:06:06;;;;;;;6.88;3.50;;;4.90;99.90;;;;;;5079515;28;20040;-70
2021/12/10 11:08:38;;;;;;;10.07;3.78;;;5.00;99.90;;;;;;5095283;28;20131;-69
2021/12/10 11:11:28;;;;;;;8.40;3.53;;;5.00;99.90;;;;;;5095243;28;20031;-71
2021/12/10 11:14:03;;;;;;;9.30;4.32;;;5.00;99.90;;;;;;5093540;28;20052;-72
2021/12/10 11:16:31;;;;;;;;;;;5.00;99.90;;;;;;5094847;28;20040;-70
2021/12/10 11:19:06;;;;;;;7.65;3.40;;;5.00;99.90;;;;;;5094851;28;20011;-69
2021/12/10 11:22:13;;;;;;;6.75;3.63;;;5.10;99.90;;;;;;5094984;28;20059;-69
2021/12/10 11:24:46;;;;;;;9.88;3.70;;;5.00;99.90;;;;;;5094782;28;20040;-69
2021/12/10 11:27:19;;;;;;;9.13;4.13;;;5.00;99.90;;;;;;5094387;28;20453;-69
2021/12/10 11:29:50;;;;;;;9.07;4.20;;;5.00;99.90;;;;;;5094896;28;20040;-69
2021/12/10 11:32:16;;;;;;;7.05;3.30;;;5.10;99.90;;;;;;5080608;28;20066;-69
2021/12/10 11:34:43;;;;;;;11.63;3.30;;;5.00;99.90;;;;;;5074187;28;20466;-69
2021/12/10 11:37:09;;;;;;;7.82;3.53;;;5.00;99.90;;;;;;5087784;28;20050;-69
2021/12/10 11:39:51;;;;;;;6.93;3.42;;;5.10;99.90;;;;;;5094224;28;20089;-69
2021/12/10 11:42:44;;;;;;;7.53;3.33;;;5.10;99.90;;;;;;5094337;28;20039;-69
2021/12/10 11:45:33;;;;;;;8.98;3.17;;;5.10;99.90;;;;;;5093284;28;20044;-70
2021/12/10 11:48:08;;;;;;;7.97;3.72;;;5.00;99.90;;;;;;5092657;28;20071;-68
2021/12/10 11:50:37;;;;;;;8.15;3.63;;;5.00;99.90;;;;;;5093671;28;20044;-70
2021/12/10 11:53:08;;;;;;;8.85;3.70;;;5.00;99.90;;;;;;5093802;28;20040;-71
2021/12/10 11:55:35;;;;;;;11.05;3.63;;;5.00;99.90;;;;;;5074211;28;20182;-69
2021/12/10 11:58:02;;;;;;;8.50;3.45;;;5.00;99.90;;;;;;5093795;28;20040;-69
2021/12/10 12:00:33;;;;;;;8.38;3.33;;;5.00;99.90;;;;;;5089731;28;20047;-69
2021/12/10 12:03:04;;;;;;;10.85;3.53;;;5.00;99.90;;;;;;5073050;28;20048;-69
2021/12/10 12:05:42;;;;;;;8.52;3.60;;;5.00;99.90;;;;;;5073678;28;20036;-69
2021/12/10 12:08:12;;;;;;;8.35;3.20;;;5.10;99.90;;;;;;5073549;28;20750;-70
2021/12/10 12:10:48;;;;;;;7.65;3.72;;;5.10;99.90;;;;;;5073851;28;20051;-69
2021/12/10 12:15:51;;;;;;;8.05;3.45;;;5.10;99.90;;;;;;5074776;28;20052;-70
2021/12/10 12:18:26;;;;;;;8.32;3.70;;;5.10;99.90;;;;;;5080202;28;20076;-70
2021/12/10 12:20:59;;;;;;;7.05;3.40;;;5.10;99.90;;;;;;5073853;28;20036;-70
2021/12/10 12:26:25;;;;;;;10.77;3.20;;;5.20;99.90;;;;;;5079021;28;20384;-70
2021/12/10 12:29:19;;;;;;;10.15;3.47;;;5.20;99.90;;;;;;5093286;28;20107;-71
2021/12/10 12:31:50;;;;;;;7.88;3.30;;;5.20;99.90;;;;;;5089445;28;20495;-71
2021/12/10 12:34:22;;;;;;;8.98;3.53;;;5.20;99.90;;;;;;5093557;28;20056;-71
2021/12/10 12:36:50;;;;;;;10.88;3.75;;;5.10;99.90;;;;;;5093570;28;20117;-70
2021/12/10 12:39:47;;;;;;;6.70;2.75;;;5.10;99.90;;;;;;5093656;28;20432;-72
2021/12/10 12:42:29;;;;;;;8.05;3.30;;;5.10;99.90;;;;;;5080505;28;20052;-71
2021/12/10 12:45:20;;;;;;;8.43;3.60;;;5.20;99.90;;;;;;5093657;28;20040;-71
2021/12/10 12:47:51;;;;;;;8.18;3.05;;;5.20;99.90;;;;;;5082931;28;20118;-72
2021/12/10 12:50:24;;;;;;;8.88;2.97;;;5.10;99.90;;;;;;5073579;28;20060;-69
2021/12/10 12:53:07;;;;;;;9.35;2.97;;;5.10;99.90;;;;;;5072877;28;20098;-71
2021/12/10 12:56:02;;;;;;;9.10;3.40;;;5.10;99.90;;;;;;5073173;28;20458;-70
2021/12/10 12:58:41;;;;;;;7.55;3.08;;;5.00;99.90;;;;;;5077685;28;20115;-69
2021/12/10 13:01:22;;;;;;;7.30;2.95;;;5.10;99.90;;;;;;5076286;28;20473;-69
2021/12/10 13:03:57;;;;;;;7.07;2.97;;;5.10;99.90;;;;;;5072747;28;20533;-70
2021/12/10 13:06:34;;;;;;;6.63;2.58;;;5.00;99.90;;;;;;5079512;28;20036;-71
2021/12/10 13:09:11;;;;;;;9.23;3.13;;;5.00;99.90;;;;;;5092853;28;20429;-69